Time;durP1;ratioP1;P1;durP2;ratioP2;P2;SDS_P1;SDS_P2;PMS_P1;PMS_P2;Temp;Humidity;BMP_temperature;BMP_pressure;BME280_temperature;BME280_humidity;BME280_pressure;Samples;Min_cycle;Max_cycle;Signal;HPM_P1;HPM_P2
2023/12/08 00:02:01;;;;;;;;;23.25;18.25;;;;;7.01;96.10;100195.34;5076488;28;45225;-46
2023/12/08 00:04:26;;;;;;;;;23.50;19.00;;;;;7.03;96.24;100195.22;5076740;27;45832;-46
2023/12/08 00:06:52;;;;;;;;;24.75;22.75;;;;;7.00;96.37;100189.25;5076448;28;45445;-45
2023/12/08 00:09:17;;;;;;;;;26.00;18.50;;;;;7.03;96.75;100195.22;5076363;28;45463;-46
2023/12/08 00:11:42;;;;;;;;;28.00;24.25;;;;;7.07;97.55;100196.59;5076480;27;45451;-49
2023/12/08 00:14:08;;;;;;;;;23.75;19.00;;;;;7.06;96.38;100190.47;5076543;28;45437;-44
2023/12/08 00:16:33;;;;;;;;;25.50;20.00;;;;;7.11;96.48;100200.66;5076013;28;46213;-44
2023/12/08 00:18:58;;;;;;;;;24.50;20.00;;;;;7.10;95.82;100206.91;5074947;27;50685;-46
2023/12/08 00:21:25;;;;;;;;;20.75;19.00;;;;;7.14;95.84;100203.84;5076170;27;45307;-47
2023/12/08 00:23:51;;;;;;;;;18.75;15.25;;;;;7.11;96.69;100196.19;5076670;28;45449;-45
2023/12/08 00:26:16;;;;;;;;;26.00;17.50;;;;;7.17;96.21;100198.31;5075549;28;46243;-47
2023/12/08 00:28:42;;;;;;;;;25.00;19.50;;;;;7.19;96.17;100204.28;5075884;28;45187;-46
2023/12/08 00:31:07;;;;;;;;;26.75;19.00;;;;;7.21;95.80;100202.34;5078354;28;45304;-43
2023/12/08 00:33:32;;;;;;;;;19.25;19.25;;;;;7.19;97.04;100206.91;5080023;27;45287;-44
2023/12/08 00:35:58;;;;;;;;;29.25;22.50;;;;;7.23;97.26;100213.59;5079596;28;46496;-47
2023/12/08 00:38:23;;;;;;;;;21.25;18.00;;;;;7.27;96.09;100214.16;5079730;27;45351;-47
2023/12/08 00:40:49;;;;;;;;;30.50;19.50;;;;;7.30;96.58;100216.56;5079776;27;45294;-47
2023/12/08 00:43:15;;;;;;;;;27.25;17.50;;;;;7.28;96.00;100207.06;5079816;27;45424;-46
2023/12/08 00:45:40;;;;;;;;;24.25;17.50;;;;;7.32;95.46;100214.59;5079193;28;46021;-45
2023/12/08 00:48:05;;;;;;;;;18.75;16.50;;;;;7.34;96.12;100223.22;5078950;27;45383;-46
2023/12/08 00:50:31;;;;;;;;;20.00;18.50;;;;;7.40;95.73;100224.47;5079516;28;45292;-46
2023/12/08 00:52:56;;;;;;;;;19.00;13.00;;;;;7.42;95.22;100218.09;5079735;28;45396;-46
2023/12/08 00:55:21;;;;;;;;;28.25;20.50;;;;;7.41;96.36;100224.34;5079168;27;47545;-45
2023/12/08 00:57:48;;;;;;;;;25.25;17.00;;;;;7.44;96.52;100218.75;5079261;27;45390;-45
2023/12/08 01:00:13;;;;;;;;;18.00;16.00;;;;;7.44;96.65;100218.75;5079191;27;45414;-42
2023/12/08 01:02:39;;;;;;;;;18.00;15.25;;;;;7.42;96.50;100215.44;5079342;27;45548;-47
2023/12/08 01:05:05;;;;;;;;;20.75;16.25;;;;;7.46;96.44;100213.34;5078944;27;50216;-53
2023/12/08 01:07:30;;;;;;;;;21.50;17.00;;;;;7.52;96.73;100218.06;5079094;28;45395;-46
2023/12/08 01:09:55;;;;;;;;;24.00;16.50;;;;;7.55;95.99;100224.91;5079287;28;45570;-52
2023/12/08 01:12:21;;;;;;;;;20.00;16.00;;;;;7.57;95.74;100222.94;5079486;28;45389;-52
2023/12/08 01:14:47;;;;;;;;;13.50;10.50;;;;;7.60;95.67;100220.84;5079052;28;46136;-52
2023/12/08 01:17:12;;;;;;;;;19.75;16.50;;;;;7.61;96.05;100227.00;5078641;27;45383;-44
2023/12/08 01:19:37;;;;;;;;;14.25;13.75;;;;;7.60;95.72;100234.09;5079171;27;45243;-52
2023/12/08 01:22:03;;;;;;;;;17.25;11.50;;;;;7.65;95.59;100234.50;5079031;28;45362;-53
2023/12/08 01:24:28;;;;;;;;;18.75;12.00;;;;;7.61;95.58;100227.81;5078762;28;46198;-53
2023/12/08 01:26:53;;;;;;;;;20.50;12.75;;;;;7.68;95.69;100236.88;5078843;27;45402;-47
2023/12/08 01:29:19;;;;;;;;;21.00;17.00;;;;;7.70;95.56;100236.72;5078877;28;45367;-45
2023/12/08 01:31:44;;;;;;;;;19.75;13.50;;;;;7.69;95.79;100235.91;5078906;27;45315;-48
2023/12/08 01:34:10;;;;;;;;;21.50;14.00;;;;;7.70;95.68;100231.44;5078609;28;45446;-50
2023/12/08 01:36:35;;;;;;;;;19.00;14.00;;;;;7.71;95.75;100241.91;5078843;28;47817;-49
2023/12/08 01:39:00;;;;;;;;;18.25;17.00;;;;;7.74;95.79;100235.47;5078623;27;45451;-47
2023/12/08 01:41:26;;;;;;;;;13.50;13.00;;;;;7.65;95.90;100223.09;5094190;27;45324;-49
2023/12/08 01:43:51;;;;;;;;;15.00;13.75;;;;;7.75;96.60;100245.06;5078000;28;46192;-50
2023/12/08 01:46:19;;;;;;;;;12.50;8.50;;;;;7.77;96.76;100243.13;5078401;28;45395;-50
2023/12/08 01:48:45;;;;;;;;;18.00;14.00;;;;;7.80;96.00;100244.69;5078810;27;45473;-53
2023/12/08 01:51:13;;;;;;;;;12.00;12.00;;;;;7.82;96.39;100243.56;5078684;27;45268;-47
2023/12/08 01:53:40;;;;;;;;;17.25;11.25;;;;;7.81;96.58;100238.41;5078217;28;47165;-48
2023/12/08 01:56:07;;;;;;;;;18.75;13.25;;;;;7.82;96.80;100240.06;5077988;28;45415;-48
2023/12/08 01:58:32;;;;;;;;;19.00;14.00;;;;;7.85;96.47;100247.75;5078303;28;45461;-47
2023/12/08 02:00:58;;;;;;;;;14.50;12.75;;;;;7.88;96.40;100250.09;5078060;28;45527;-49
2023/12/08 02:03:26;;;;;;;;;11.50;11.50;;;;;7.89;96.29;100262.38;5078326;27;45348;-48
2023/12/08 02:05:51;;;;;;;;;16.75;13.00;;;;;7.92;95.70;100257.63;5078317;27;45315;-50
2023/12/08 02:08:17;;;;;;;;;14.00;6.50;;;;;7.92;95.29;100247.03;5093996;27;45917;-49
2023/12/08 02:10:43;;;;;;;;;12.50;9.25;;;;;7.94;96.49;100254.81;5078738;28;45410;-51
2023/12/08 02:13:11;;;;;;;;;14.50;12.75;;;;;7.97;95.98;100260.69;5078033;27;46137;-47
2023/12/08 02:15:36;;;;;;;;;14.00;13.00;;;;;7.98;95.47;100257.06;5078249;28;45447;-48
2023/12/08 02:18:02;;;;;;;;;18.00;12.25;;;;;8.00;96.01;100262.19;5077439;28;45462;-48
2023/12/08 02:20:29;;;;;;;;;13.50;11.25;;;;;8.02;96.05;100275.31;5078315;28;45479;-51
2023/12/08 02:22:54;;;;;;;;;21.50;15.25;;;;;8.02;96.05;100276.16;5059729;28;47504;-49
2023/12/08 02:25:19;;;;;;;;;17.50;14.25;;;;;8.04;95.84;100282.13;5077789;27;45481;-49
2023/12/08 02:27:45;;;;;;;;;16.75;11.25;;;;;8.06;96.37;100292.59;5077073;28;45446;-50
2023/12/08 02:30:10;;;;;;;;;21.25;10.75;;;;;8.05;96.78;100280.31;5078167;27;45423;-47
2023/12/08 02:32:52;;;;;;;;;16.50;10.25;;;;;8.08;96.05;100278.22;5077723;27;46403;-48
2023/12/08 02:35:20;;;;;;;;;15.25;11.00;;;;;8.09;97.08;100269.31;5078011;28;45420;-46
2023/12/08 02:37:48;;;;;;;;;14.50;11.25;;;;;8.00;97.03;100260.38;5077855;28;45421;-45
2023/12/08 02:40:14;;;;;;;;;14.50;12.25;;;;;8.01;96.51;100255.94;5077888;28;45392;-48
2023/12/08 02:42:39;;;;;;;;;18.25;10.25;;;;;8.15;96.76;100278.50;5077706;27;45985;-46
2023/12/08 02:45:05;;;;;;;;;17.00;11.50;;;;;8.18;96.20;100280.88;5077538;28;45396;-47
2023/12/08 02:47:30;;;;;;;;;15.50;10.25;;;;;8.07;96.59;100249.22;5077945;27;45383;-46
2023/12/08 02:49:56;;;;;;;;;10.00;8.75;;;;;8.18;96.17;100267.63;5077608;28;45335;-45
2023/12/08 02:52:21;;;;;;;;;13.75;10.75;;;;;8.20;95.90;100265.66;5059392;28;45370;-46
2023/12/08 02:54:46;;;;;;;;;17.00;12.75;;;;;8.23;95.56;100270.66;5059215;28;47962;-45
2023/12/08 02:57:12;;;;;;;;;12.25;11.75;;;;;8.24;95.78;100277.63;5076863;28;45395;-44
2023/12/08 02:59:37;;;;;;;;;11.25;11.25;;;;;8.20;96.15;100273.59;5077674;27;45356;-50
2023/12/08 03:02:03;;;;;;;;;14.00;10.50;;;;;8.27;96.94;100281.81;5077179;27;45876;-45
2023/12/08 03:04:28;;;;;;;;;13.75;11.25;;;;;8.27;96.64;100274.72;5077180;27;45422;-46
2023/12/08 03:06:53;;;;;;;;;11.50;11.25;;;;;8.29;96.28;100275.38;5077368;28;45457;-45
2023/12/08 03:09:19;;;;;;;;;10.00;8.25;;;;;8.31;95.88;100278.75;5059290;27;45359;-44
2023/12/08 03:11:44;;;;;;;;;16.75;10.75;;;;;8.32;96.59;100269.81;5077098;28;50549;-47
2023/12/08 03:14:09;;;;;;;;;9.25;9.25;;;;;8.32;96.94;100264.50;5076507;28;45312;-49
2023/12/08 03:16:35;;;;;;;;;11.75;6.75;;;;;8.34;96.67;100251.94;5077290;28;45383;-47
2023/12/08 03:19:00;;;;;;;;;15.75;10.25;;;;;8.36;97.06;100257.09;5077123;28;45522;-48
2023/12/08 03:21:27;;;;;;;;;11.25;9.50;;;;;8.34;97.20;100253.75;5076989;27;46144;-51
2023/12/08 03:23:52;;;;;;;;;14.75;13.00;;;;;8.38;96.94;100253.34;5077113;28;45315;-45
2023/12/08 03:26:18;;;;;;;;;17.00;11.75;;;;;8.39;97.22;100259.50;5077040;27;45395;-46
2023/12/08 03:28:44;;;;;;;;;15.00;11.00;;;;;8.40;96.73;100261.19;5077111;28;45395;-45
2023/12/08 03:31:21;;;;;;;;;16.50;9.00;;;;;8.41;97.44;100265.50;5076379;27;45368;-52
2023/12/08 03:33:46;;;;;;;;;15.75;10.50;;;;;8.42;97.75;100273.28;5077078;28;45290;-52
2023/12/08 03:36:12;;;;;;;;;12.50;10.25;;;;;8.44;97.33;100275.81;5076697;28;48905;-51
2023/12/08 03:38:37;;;;;;;;;13.25;10.25;;;;;8.39;97.61;100276.25;5077226;28;45375;-53
2023/12/08 03:41:02;;;;;;;;;14.75;10.00;;;;;8.48;97.78;100285.97;5058440;28;50406;-53
2023/12/08 03:43:28;;;;;;;;;17.25;9.75;;;;;8.48;97.29;100293.94;5076770;28;45363;-51
2023/12/08 03:45:53;;;;;;;;;14.00;9.50;;;;;8.50;98.07;100296.44;5077078;28;45257;-52
2023/12/08 03:48:18;;;;;;;;;11.25;11.25;;;;;8.52;97.61;100297.13;5076706;28;45347;-52
2023/12/08 03:50:44;;;;;;;;;17.25;12.50;;;;;8.48;98.04;100296.59;5076818;28;45449;-53
2023/12/08 03:53:09;;;;;;;;;8.33;8.33;;;;;8.53;97.38;100304.09;5075803;27;45583;-53
2023/12/08 03:55:34;;;;;;;;;9.67;9.00;;;;;8.54;98.11;100305.75;5077067;28;45380;-53
2023/12/08 03:57:59;;;;;;;;;14.67;9.00;;;;;8.54;98.11;100311.06;5076949;28;45386;-48
2023/12/08 04:00:25;;;;;;;;;12.33;10.00;;;;;8.55;97.98;100320.69;5076408;27;49839;-49
2023/12/08 04:02:50;;;;;;;;;9.67;7.33;;;;;8.56;97.54;100322.38;5092360;27;45416;-46
2023/12/08 04:05:15;;;;;;;;;15.00;9.67;;;;;8.58;98.46;100333.66;5077382;28;45443;-47
2023/12/08 04:07:41;;;;;;;;;15.33;8.67;;;;;8.59;98.53;100339.78;5080747;27;45506;-47
2023/12/08 04:10:06;;;;;;;;;16.50;12.00;;;;;8.58;98.33;100332.81;5080050;27;45414;-45
2023/12/08 04:12:32;;;;;;;;;9.33;7.67;;;;;8.56;98.75;100332.97;5080228;27;45371;-53
2023/12/08 04:14:57;;;;;;;;;13.67;10.33;;;;;8.60;98.05;100344.97;5080152;27;45304;-47
2023/12/08 04:17:23;;;;;;;;;11.00;8.67;;;;;8.63;97.80;100347.31;5080126;27;45467;-47
2023/12/08 04:19:48;;;;;;;;;14.50;10.25;;;;;8.64;98.40;100354.31;5080042;27;45617;-50
2023/12/08 04:22:13;;;;;;;;;16.00;11.25;;;;;8.64;98.81;100346.34;5079799;27;46123;-52
2023/12/08 04:24:39;;;;;;;;;23.00;7.25;;;;;8.64;97.93;100351.66;5080226;27;45366;-50
2023/12/08 04:27:04;;;;;;;;;9.50;6.75;;;;;8.65;98.23;100361.28;5080125;27;45550;-51
2023/12/08 04:29:30;;;;;;;;;11.00;8.67;;;;;8.66;98.90;100368.25;5079753;27;45528;-45
2023/12/08 04:31:55;;;;;;;;;13.33;9.00;;;;;8.66;98.71;100368.25;5079542;28;47941;-43
2023/12/08 04:34:20;;;;;;;;;17.33;9.00;;;;;8.69;98.90;100373.28;5079700;28;45387;-46
2023/12/08 04:36:46;;;;;;;;;11.75;11.00;;;;;8.70;98.19;100372.28;5080057;27;45406;-47
2023/12/08 04:39:11;;;;;;;;;17.00;9.67;;;;;8.71;97.99;100370.47;5079680;27;46148;-47
2023/12/08 04:41:36;;;;;;;;;16.67;11.67;;;;;8.72;98.13;100370.34;5079758;28;45342;-46
2023/12/08 04:44:02;;;;;;;;;16.00;8.00;;;;;8.74;99.00;100371.03;5079897;27;45382;-47
2023/12/08 04:46:27;;;;;;;;;10.67;9.00;;;;;8.73;99.08;100374.66;5060794;28;45575;-46
2023/12/08 04:48:53;;;;;;;;;9.00;7.00;;;;;8.74;98.84;100373.66;5079166;28;49861;-48
2023/12/08 04:51:18;;;;;;;;;18.33;9.00;;;;;8.77;98.09;100380.50;5078565;28;49569;-47
2023/12/08 04:53:43;;;;;;;;;14.25;9.75;;;;;8.78;97.99;100373.38;5079475;28;45760;-47
2023/12/08 04:56:09;;;;;;;;;13.67;9.67;;;;;8.78;98.45;100376.03;5079718;28;45476;-46
2023/12/08 04:58:34;;;;;;;;;14.50;12.75;;;;;8.79;98.56;100372.41;5079028;27;46013;-49
2023/12/08 05:00:59;;;;;;;;;9.00;9.00;;;;;8.81;98.02;100381.06;5079504;28;45384;-46
2023/12/08 05:03:25;;;;;;;;;13.50;10.75;;;;;8.79;98.14;100381.19;5079362;28;45407;-52
2023/12/08 05:05:50;;;;;;;;;12.00;12.00;;;;;8.73;97.95;100379.97;5079338;28;45320;-52
2023/12/08 05:08:15;;;;;;;;;18.75;17.50;;;;;8.72;98.19;100393.34;5095123;27;46180;-52
2023/12/08 05:10:41;;;;;;;;;15.25;12.25;;;;;8.72;98.36;100393.34;5079168;27;45442;-47
2023/12/08 05:13:06;;;;;;;;;20.00;13.50;;;;;8.70;98.41;100393.50;5079474;28;45880;-44
2023/12/08 05:15:32;;;;;;;;;26.00;13.50;;;;;8.69;97.93;100394.50;5078959;28;45513;-43
2023/12/08 05:17:57;;;;;;;;;20.75;13.00;;;;;8.69;98.52;100394.50;5077838;28;46117;-46
2023/12/08 05:20:23;;;;;;;;;18.00;11.50;;;;;8.59;98.77;100385.69;5078851;28;45347;-48
2023/12/08 05:22:50;;;;;;;;;20.50;12.75;;;;;8.68;99.28;100405.22;5060898;28;45314;-45
2023/12/08 05:25:15;;;;;;;;;11.75;10.50;;;;;8.67;98.86;100400.91;5079456;27;45425;-48
2023/12/08 05:27:41;;;;;;;;;12.00;10.50;;;;;8.69;98.59;100407.75;5078578;27;46210;-47
2023/12/08 05:30:07;;;;;;;;;22.67;11.67;;;;;8.72;99.22;100406.59;5078959;27;45376;-47
2023/12/08 05:32:32;;;;;;;;;17.75;12.50;;;;;8.70;99.29;100409.41;5078855;27;45343;-47
2023/12/08 05:34:57;;;;;;;;;21.25;13.50;;;;;8.69;99.92;100413.03;5079012;28;45607;-46
2023/12/08 05:37:23;;;;;;;;;16.00;11.00;;;;;8.70;99.27;100403.28;5078929;28;45446;-46
2023/12/08 05:39:48;;;;;;;;;16.50;10.50;;;;;8.73;100.00;100401.19;5078199;28;49142;-46
2023/12/08 05:42:13;;;;;;;;;19.25;14.00;;;;;8.75;99.50;100416.94;5078366;28;48471;-49
2023/12/08 05:44:38;;;;;;;;;14.75;10.50;;;;;8.61;99.51;100404.97;5078980;27;45370;-51
2023/12/08 05:47:04;;;;;;;;;17.67;12.33;;;;;8.76;99.88;100418.59;5078400;28;45434;-47
2023/12/08 05:49:29;;;;;;;;;16.75;10.50;;;;;8.79;100.00;100415.66;5078434;28;45389;-46
2023/12/08 05:51:55;;;;;;;;;22.00;16.50;;;;;8.79;99.85;100414.84;5078195;28;47025;-49
2023/12/08 05:54:20;;;;;;;;;19.50;10.50;;;;;8.82;99.40;100419.88;5078703;28;45355;-50
2023/12/08 05:56:45;;;;;;;;;16.50;11.00;;;;;8.81;99.56;100419.03;5077427;28;45482;-49
2023/12/08 05:59:10;;;;;;;;;18.75;12.00;;;;;8.83;99.31;100426.84;5078048;27;49920;-48
2023/12/08 06:01:36;;;;;;;;;22.75;10.25;;;;;8.84;99.10;100431.16;5078399;28;45390;-49
2023/12/08 06:04:01;;;;;;;;;20.50;12.25;;;;;8.84;99.96;100436.47;5078420;27;45427;-48
2023/12/08 06:06:27;;;;;;;;;22.50;15.75;;;;;8.80;100.00;100429.75;5078317;27;46783;-48
2023/12/08 06:08:53;;;;;;;;;14.75;12.25;;;;;8.82;100.00;100447.22;5078316;28;45338;-48
2023/12/08 06:11:18;;;;;;;;;19.00;11.25;;;;;8.82;100.00;100447.22;5077234;27;45291;-48
2023/12/08 06:13:44;;;;;;;;;20.50;11.50;;;;;8.82;100.00;100441.09;5094512;27;45329;-52
2023/12/08 06:16:09;;;;;;;;;18.25;15.00;;;;;8.80;100.00;100437.72;5078002;27;47429;-52
2023/12/08 06:18:35;;;;;;;;;17.25;15.25;;;;;8.83;100.00;100442.75;5092791;27;45259;-50
2023/12/08 06:21:00;;;;;;;;;19.75;12.50;;;;;8.82;100.00;100444.56;5078190;27;45347;-52
2023/12/08 06:23:25;;;;;;;;;18.25;13.50;;;;;8.86;100.00;100456.56;5078059;27;45311;-50
2023/12/08 06:25:51;;;;;;;;;21.50;10.00;;;;;8.81;100.00;100456.16;5077603;28;46621;-55
2023/12/08 06:28:17;;;;;;;;;14.25;12.00;;;;;8.83;100.00;100458.66;5076939;27;45345;-45
2023/12/08 06:30:42;;;;;;;;;15.25;13.00;;;;;8.85;99.94;100457.56;5078315;27;45224;-50
2023/12/08 06:33:07;;;;;;;;;19.00;12.50;;;;;8.87;100.00;100460.88;5077795;28;45531;-51
2023/12/08 06:35:32;;;;;;;;;19.75;14.00;;;;;8.87;100.00;100475.97;5077220;27;46162;-54
2023/12/08 06:37:58;;;;;;;;;14.75;12.50;;;;;8.85;100.00;100475.25;5077361;27;45430;-52
2023/12/08 06:40:23;;;;;;;;;15.33;14.33;;;;;8.88;100.00;100478.47;5077568;27;45362;-47
2023/12/08 06:42:48;;;;;;;;;17.00;12.33;;;;;8.87;100.00;100470.66;5077755;28;45488;-52
2023/12/08 06:45:14;;;;;;;;;20.67;15.00;;;;;8.88;100.00;100482.94;5077292;28;47114;-53
2023/12/08 06:47:39;;;;;;;;;15.33;14.33;;;;;8.81;100.00;100477.38;5077661;28;45251;-54
2023/12/08 06:50:05;;;;;;;;;18.00;11.67;;;;;8.87;100.00;100490.06;5077413;28;45512;-52
2023/12/08 06:52:31;;;;;;;;;20.33;15.00;;;;;8.88;100.00;100499.69;5076182;28;45602;-49
2023/12/08 06:54:57;;;;;;;;;17.00;9.50;;;;;8.89;100.00;100484.59;5077226;28;47198;-50
2023/12/08 06:57:22;;;;;;;;;20.00;14.50;;;;;8.90;100.00;100494.25;5077172;28;45387;-46
2023/12/08 06:59:47;;;;;;;;;14.00;7.75;;;;;8.89;100.00;100496.09;5077328;28;45327;-46
2023/12/08 07:02:12;;;;;;;;;18.00;11.33;;;;;8.90;100.00;100504.88;5077492;27;45422;-49
2023/12/08 07:04:38;;;;;;;;;15.75;11.25;;;;;8.92;100.00;100503.72;5076772;27;52143;-51
2023/12/08 07:07:03;;;;;;;;;16.33;11.33;;;;;8.93;100.00;100507.22;5077177;28;45470;-49
2023/12/08 07:09:29;;;;;;;;;18.25;12.25;;;;;8.90;100.00;100502.22;5077468;27;45221;-49
2023/12/08 07:11:54;;;;;;;;;22.00;18.25;;;;;8.92;99.79;100516.16;5077360;28;45430;-48
2023/12/08 07:14:20;;;;;;;;;23.75;14.00;;;;;8.93;100.00;100515.19;5077085;27;45272;-47
2023/12/08 07:16:45;;;;;;;;;14.25;12.00;;;;;8.94;100.00;100515.06;5077135;27;45367;-49
2023/12/08 07:19:11;;;;;;;;;24.00;15.50;;;;;8.95;100.00;100511.41;5077170;28;45303;-49
2023/12/08 07:21:43;;;;;;;;;22.00;15.50;;;;;8.97;100.00;100521.88;5077523;28;45505;-48
2023/12/08 07:24:10;;;;;;;;;25.25;14.75;;;;;8.95;100.00;100513.22;5076851;27;46242;-48
2023/12/08 07:26:36;;;;;;;;;23.75;15.50;;;;;8.99;100.00;100522.59;5077267;28;45375;-51
2023/12/08 07:29:02;;;;;;;;;14.67;10.67;;;;;8.97;99.77;100530.69;5077166;27;45216;-49
2023/12/08 07:31:27;;;;;;;;;15.50;15.00;;;;;9.03;100.00;100547.03;5077318;28;45292;-49
2023/12/08 07:33:52;;;;;;;;;23.33;16.00;;;;;9.02;99.67;100542.66;5076243;28;49744;-50
2023/12/08 07:36:18;;;;;;;;;16.50;15.00;;;;;9.02;99.91;100546.19;5076856;28;45424;-47
2023/12/08 07:38:44;;;;;;;;;14.75;14.00;;;;;9.01;100.00;100552.44;5076707;28;45508;-48
2023/12/08 07:41:09;;;;;;;;;24.50;17.00;;;;;9.04;100.00;100559.31;5076147;28;45466;-50
2023/12/08 07:43:35;;;;;;;;;17.75;14.75;;;;;9.05;100.00;100555.66;5077019;27;46049;-49
2023/12/08 07:46:00;;;;;;;;;15.00;12.00;;;;;9.05;100.00;100555.66;5076646;28;45496;-48
2023/12/08 07:48:26;;;;;;;;;23.67;12.00;;;;;9.06;99.47;100555.53;5076704;27;45378;-48
2023/12/08 07:50:51;;;;;;;;;18.67;13.00;;;;;9.08;100.00;100569.50;5077051;28;45331;-48
2023/12/08 07:53:16;;;;;;;;;20.00;12.33;;;;;9.08;100.00;100561.53;5076644;28;46007;-49
2023/12/08 07:55:41;;;;;;;;;16.33;12.33;;;;;9.07;99.66;100557.22;5076742;27;45398;-46
2023/12/08 07:58:07;;;;;;;;;14.33;14.33;;;;;9.10;99.54;100566.69;5076522;28;46235;-49
2023/12/08 08:00:32;;;;;;;;;21.00;12.67;;;;;9.08;99.53;100561.53;5076849;28;45366;-49
2023/12/08 08:02:57;;;;;;;;;19.00;15.00;;;;;9.09;99.47;100563.19;5076305;28;55187;-50
2023/12/08 08:05:24;;;;;;;;;16.00;10.00;;;;;9.10;98.84;100578.16;5076720;28;45355;-47
2023/12/08 08:07:50;;;;;;;;;16.00;11.00;;;;;9.09;99.07;100576.47;5076794;28;45469;-48
2023/12/08 08:10:15;;;;;;;;;18.67;12.00;;;;;9.08;98.84;100581.94;5076937;27;45249;-49
2023/12/08 08:12:40;;;;;;;;;14.67;10.33;;;;;9.09;99.32;100587.09;5076586;27;45403;-46
2023/12/08 08:15:06;;;;;;;;;20.00;12.00;;;;;9.12;99.00;100596.59;5076127;28;45355;-46
2023/12/08 08:17:32;;;;;;;;;10.00;7.00;;;;;9.10;98.78;100582.59;5074745;27;45324;-50
2023/12/08 08:19:57;;;;;;;;;14.33;10.00;;;;;9.13;98.23;100592.94;5076189;28;45268;-52
2023/12/08 08:22:22;;;;;;;;;17.33;14.00;;;;;9.13;98.62;100595.59;5076328;27;46015;-52
2023/12/08 08:24:48;;;;;;;;;13.67;11.67;;;;;9.14;98.90;100602.56;5076355;28;45303;-48
2023/12/08 08:27:13;;;;;;;;;19.00;10.33;;;;;9.15;98.05;100601.63;5076268;28;45406;-48
2023/12/08 08:29:38;;;;;;;;;17.33;14.33;;;;;9.16;98.59;100600.63;5076258;28;45406;-51
2023/12/08 08:32:04;;;;;;;;;16.33;11.67;;;;;9.15;98.43;100599.81;5075553;28;45962;-50
2023/12/08 08:34:29;;;;;;;;;20.00;11.00;;;;;9.17;98.82;100604.97;5076118;27;45414;-50
2023/12/08 08:36:55;;;;;;;;;15.67;10.67;;;;;9.16;98.49;100608.59;5076133;28;45322;-49
2023/12/08 08:39:20;;;;;;;;;15.33;11.67;;;;;9.17;98.91;100621.72;5076397;28;45395;-50
2023/12/08 08:41:46;;;;;;;;;18.00;13.50;;;;;9.17;98.96;100632.34;5075406;28;46236;-49
2023/12/08 08:44:12;;;;;;;;;17.67;13.33;;;;;9.18;98.96;100626.03;5056332;28;45450;-45
2023/12/08 08:46:40;;;;;;;;;11.67;11.33;;;;;9.19;98.45;100618.94;5073576;28;45525;-44
2023/12/08 08:49:05;;;;;;;;;17.50;12.25;;;;;9.17;98.29;100605.78;5069114;28;45439;-47
2023/12/08 08:51:30;;;;;;;;;16.33;10.00;;;;;9.22;98.22;100618.63;5064755;28;45905;-44
2023/12/08 08:53:56;;;;;;;;;15.00;12.33;;;;;9.24;98.58;100625.50;5076409;28;45731;-44
2023/12/08 08:56:22;;;;;;;;;13.00;11.00;;;;;9.25;97.63;100624.50;5076354;28;45375;-43
2023/12/08 08:58:47;;;;;;;;;15.33;13.33;;;;;9.22;98.01;100619.47;5076678;28;45445;-44
2023/12/08 09:01:12;;;;;;;;;16.00;11.67;;;;;9.26;98.50;100622.69;5077565;27;46228;-45
2023/12/08 09:03:38;;;;;;;;;18.33;10.00;;;;;9.27;98.23;100623.53;5076212;28;45502;-46
2023/12/08 09:06:03;;;;;;;;;10.33;9.33;;;;;9.32;98.08;100626.63;5075875;28;45385;-44
2023/12/08 09:08:29;;;;;;;;;21.33;15.67;;;;;9.35;98.09;100624.47;5076325;28;45481;-45
2023/12/08 09:10:54;;;;;;;;;17.00;7.33;;;;;9.37;98.00;100629.69;5075975;28;50322;-45
2023/12/08 09:13:21;;;;;;;;;9.33;5.67;;;;;9.39;97.78;100620.56;5075696;28;45533;-45
2023/12/08 09:15:46;;;;;;;;;14.33;9.00;;;;;9.41;97.34;100615.97;5057745;28;45658;-46
2023/12/08 09:18:12;;;;;;;;;14.67;11.00;;;;;9.42;97.65;100622.94;5075714;27;46471;-47
2023/12/08 09:20:37;;;;;;;;;13.67;11.00;;;;;9.45;97.22;100617.38;5075764;28;45866;-45
2023/12/08 09:23:02;;;;;;;;;19.67;14.00;;;;;9.45;97.27;100617.38;5075531;27;45511;-46
2023/12/08 09:25:28;;;;;;;;;21.33;15.33;;;;;9.49;97.02;100617.91;5075430;28;45399;-44
2023/12/08 09:27:53;;;;;;;;;19.00;9.67;;;;;9.50;97.37;100623.06;5077125;28;45478;-45
2023/12/08 09:30:18;;;;;;;;;18.33;10.67;;;;;9.51;97.11;100618.59;5075561;28;47220;-44
2023/12/08 09:32:44;;;;;;;;;17.00;11.33;;;;;9.55;97.48;100625.31;5076543;28;45486;-43
2023/12/08 09:35:09;;;;;;;;;16.00;13.33;;;;;9.58;97.56;100629.50;5075788;28;45422;-43
2023/12/08 09:37:34;;;;;;;;;14.00;11.67;;;;;9.60;97.09;100628.34;5075929;28;45390;-44
2023/12/08 09:40:00;;;;;;;;;19.33;14.33;;;;;9.62;96.73;100636.22;5074773;28;47475;-44
2023/12/08 09:42:34;;;;;;;;;23.67;14.00;;;;;9.64;96.90;100642.19;5074517;28;45341;-43
2023/12/08 09:45:01;;;;;;;;;16.33;14.33;;;;;9.65;96.50;100644.72;5075196;27;45479;-44
2023/12/08 09:47:29;;;;;;;;;20.67;12.67;;;;;9.68;96.83;100652.38;5075663;27;45504;-44
2023/12/08 09:49:55;;;;;;;;;19.33;15.00;;;;;9.69;96.38;100637.28;5075027;28;46273;-43
2023/12/08 09:52:21;;;;;;;;;22.67;19.00;;;;;9.63;96.46;100621.94;5075387;27;45427;-45
2023/12/08 09:54:48;;;;;;;;;25.33;14.00;;;;;9.77;96.40;100650.69;5075362;28;45489;-44
2023/12/08 09:57:14;;;;;;;;;18.33;17.00;;;;;9.80;96.06;100652.22;5075478;28;45379;-46
2023/12/08 09:59:41;;;;;;;;;16.00;15.00;;;;;9.78;95.90;100651.56;5075214;28;47137;-45
2023/12/08 10:02:07;;;;;;;;;21.33;16.00;;;;;9.82;95.75;100666.19;5075065;28;45372;-46
2023/12/08 10:04:33;;;;;;;;;17.00;13.33;;;;;9.63;95.80;100630.75;5074187;28;45364;-44
2023/12/08 10:07:01;;;;;;;;;26.00;20.33;;;;;9.84;95.92;100656.28;5074946;28;45561;-45
2023/12/08 10:09:29;;;;;;;;;22.67;16.67;;;;;9.83;95.36;100654.59;5072871;27;45972;-46
2023/12/08 10:11:55;;;;;;;;;26.00;16.00;;;;;9.82;95.63;100664.41;5075205;28;45492;-45
2023/12/08 10:14:21;;;;;;;;;21.00;16.33;;;;;9.82;95.57;100663.53;5074750;28;45521;-43
2023/12/08 10:16:47;;;;;;;;;23.00;16.00;;;;;9.80;95.56;100661.03;5075629;28;45787;-43
2023/12/08 10:19:13;;;;;;;;;18.33;15.33;;;;;9.72;95.12;100651.13;5074662;27;46160;-43
2023/12/08 10:21:39;;;;;;;;;22.00;12.67;;;;;9.77;95.55;100663.97;5074738;28;45454;-42
2023/12/08 10:24:05;;;;;;;;;13.00;13.00;;;;;9.80;95.04;100652.22;5075225;27;45386;-42
2023/12/08 10:26:32;;;;;;;;;16.67;9.67;;;;;9.83;95.19;100659.91;5075123;28;45549;-44
2023/12/08 10:28:58;;;;;;;;;19.33;13.67;;;;;9.84;95.10;100667.75;5074488;27;46030;-45
2023/12/08 10:31:25;;;;;;;;;18.33;12.00;;;;;9.84;94.83;100658.94;5074616;27;45496;-45
2023/12/08 10:33:51;;;;;;;;;17.33;14.00;;;;;9.88;94.82;100661.16;5074260;28;45469;-45
2023/12/08 10:36:17;;;;;;;;;21.00;11.33;;;;;9.79;94.79;100630.16;5071946;28;45705;-45
2023/12/08 10:38:43;;;;;;;;;21.33;18.00;;;;;9.92;94.55;100641.28;5072654;27;45426;-47
2023/12/08 10:41:18;;;;;;;;;24.00;15.00;;;;;9.95;93.92;100630.38;5074452;28;45482;-45
2023/12/08 10:43:45;;;;;;;;;17.00;12.00;;;;;10.06;93.30;100623.19;5074928;27;45744;-43
2023/12/08 10:46:11;;;;;;;;;18.67;12.33;;;;;10.36;92.86;100638.06;5074645;28;45298;-42
2023/12/08 10:48:37;;;;;;;;;14.67;8.67;;;;;10.77;91.91;100639.34;5073921;28;46946;-46
2023/12/08 10:51:04;;;;;;;;;22.67;16.00;;;;;11.33;89.07;100640.84;5074067;28;45524;-44
2023/12/08 10:53:31;;;;;;;;;15.67;12.67;;;;;11.95;87.09;100641.66;5074636;28;45526;-46
2023/12/08 10:56:02;;;;;;;;;19.00;12.00;;;;;12.43;84.33;100636.69;5073860;27;45404;-44
2023/12/08 10:58:28;;;;;;;;;13.67;11.33;;;;;12.81;82.12;100639.81;5074350;27;46356;-43
2023/12/08 11:00:55;;;;;;;;;18.67;12.00;;;;;13.16;81.16;100636.88;5073884;28;45860;-44
2023/12/08 11:03:21;;;;;;;;;19.00;12.33;;;;;13.20;79.43;100621.34;5073713;28;45402;-46
2023/12/08 11:05:54;;;;;;;;;23.00;12.33;;;;;13.28;78.30;100634.75;5074147;28;45773;-45
2023/12/08 11:08:20;;;;;;;;;13.00;10.33;;;;;13.25;78.48;100636.91;5073693;28;46097;-45
2023/12/08 11:10:49;;;;;;;;;13.67;12.00;;;;;13.59;78.20;100636.72;5073769;28;45447;-45